sensor_id;sensor_type;location;lat;lon;timestamp;P1;durP1;ratioP1;P2;durP2;ratioP2
11191;SDS011;5652;48.406;10.820;2022-12-11T00:00:02;23.98;;;18.40;;
11191;SDS011;5652;48.406;10.820;2022-12-11T00:02:29;26.73;;;18.10;;
11191;SDS011;5652;48.406;10.820;2022-12-11T00:04:58;23.85;;;18.05;;
11191;SDS011;5652;48.406;10.820;2022-12-11T00:07:25;23.85;;;17.90;;
11191;SDS011;5652;48.406;10.820;2022-12-11T00:09:52;23.33;;;17.08;;
11191;SDS011;5652;48.406;10.820;2022-12-11T00:12:19;22.10;;;16.85;;
11191;SDS011;5652;48.406;10.820;2022-12-11T00:14:46;23.70;;;17.83;;
11191;SDS011;5652;48.406;10.820;2022-12-11T00:17:13;23.80;;;17.95;;
11191;SDS011;5652;48.406;10.820;2022-12-11T00:19:41;22.40;;;16.73;;
11191;SDS011;5652;48.406;10.820;2022-12-11T00:22:09;23.27;;;17.73;;
11191;SDS011;5652;48.406;10.820;2022-12-11T00:24:36;24.67;;;17.77;;
11191;SDS011;5652;48.406;10.820;2022-12-11T00:27:03;24.58;;;17.63;;
11191;SDS011;5652;48.406;10.820;2022-12-11T00:29:30;24.00;;;18.17;;
11191;SDS011;5652;48.406;10.820;2022-12-11T00:31:57;22.83;;;17.85;;
11191;SDS011;5652;48.406;10.820;2022-12-11T00:34:25;23.90;;;17.70;;
11191;SDS011;5652;48.406;10.820;2022-12-11T00:36:52;25.98;;;18.92;;
11191;SDS011;5652;48.406;10.820;2022-12-11T00:39:21;26.23;;;18.48;;
11191;SDS011;5652;48.406;10.820;2022-12-11T00:41:48;26.08;;;19.23;;
11191;SDS011;5652;48.406;10.820;2022-12-11T00:44:15;25.20;;;19.00;;
11191;SDS011;5652;48.406;10.820;2022-12-11T00:46:42;26.77;;;19.07;;
11191;SDS011;5652;48.406;10.820;2022-12-11T00:49:09;26.33;;;18.85;;
11191;SDS011;5652;48.406;10.820;2022-12-11T00:51:36;24.40;;;18.50;;
11191;SDS011;5652;48.406;10.820;2022-12-11T00:54:03;25.50;;;18.85;;
11191;SDS011;5652;48.406;10.820;2022-12-11T00:56:32;25.35;;;19.02;;
11191;SDS011;5652;48.406;10.820;2022-12-11T00:58:59;26.88;;;19.02;;
11191;SDS011;5652;48.406;10.820;2022-12-11T01:01:26;27.85;;;20.33;;
11191;SDS011;5652;48.406;10.820;2022-12-11T01:03:54;27.23;;;20.00;;
11191;SDS011;5652;48.406;10.820;2022-12-11T01:06:21;26.80;;;20.30;;
11191;SDS011;5652;48.406;10.820;2022-12-11T01:08:49;28.45;;;19.88;;
11191;SDS011;5652;48.406;10.820;2022-12-11T01:11:41;28.67;;;20.25;;
11191;SDS011;5652;48.406;10.820;2022-12-11T01:14:07;29.02;;;20.23;;
11191;SDS011;5652;48.406;10.820;2022-12-11T01:16:34;28.23;;;20.03;;
11191;SDS011;5652;48.406;10.820;2022-12-11T01:19:02;28.45;;;20.48;;
11191;SDS011;5652;48.406;10.820;2022-12-11T01:21:29;27.50;;;20.63;;
11191;SDS011;5652;48.406;10.820;2022-12-11T01:23:56;29.58;;;20.42;;
11191;SDS011;5652;48.406;10.820;2022-12-11T01:26:23;28.35;;;20.48;;
11191;SDS011;5652;48.406;10.820;2022-12-11T01:28:52;28.13;;;20.27;;
11191;SDS011;5652;48.406;10.820;2022-12-11T01:31:19;26.65;;;19.23;;
11191;SDS011;5652;48.406;10.820;2022-12-11T01:33:47;26.58;;;19.75;;
11191;SDS011;5652;48.406;10.820;2022-12-11T01:36:15;27.23;;;19.83;;
11191;SDS011;5652;48.406;10.820;2022-12-11T01:38:43;27.88;;;19.48;;
11191;SDS011;5652;48.406;10.820;2022-12-11T01:41:10;27.07;;;19.70;;
11191;SDS011;5652;48.406;10.820;2022-12-11T01:46:20;26.17;;;19.20;;
11191;SDS011;5652;48.406;10.820;2022-12-11T01:48:48;26.38;;;19.80;;
11191;SDS011;5652;48.406;10.820;2022-12-11T01:51:15;27.05;;;19.23;;
11191;SDS011;5652;48.406;10.820;2022-12-11T01:53:44;27.67;;;19.55;;
11191;SDS011;5652;48.406;10.820;2022-12-11T01:56:14;27.45;;;19.38;;
11191;SDS011;5652;48.406;10.820;2022-12-11T01:58:43;27.83;;;20.02;;
11191;SDS011;5652;48.406;10.820;2022-12-11T02:01:13;28.30;;;20.00;;
11191;SDS011;5652;48.406;10.820;2022-12-11T02:03:44;26.08;;;19.10;;
11191;SDS011;5652;48.406;10.820;2022-12-11T02:08:53;25.50;;;18.85;;
11191;SDS011;5652;48.406;10.820;2022-12-11T02:11:20;26.85;;;19.02;;
11191;SDS011;5652;48.406;10.820;2022-12-11T02:13:53;26.17;;;19.02;;
11191;SDS011;5652;48.406;10.820;2022-12-11T02:16:24;25.67;;;18.77;;
11191;SDS011;5652;48.406;10.820;2022-12-11T02:18:54;26.30;;;19.05;;
11191;SDS011;5652;48.406;10.820;2022-12-11T02:21:23;27.17;;;19.38;;
11191;SDS011;5652;48.406;10.820;2022-12-11T02:24:00;28.53;;;19.43;;
11191;SDS011;5652;48.406;10.820;2022-12-11T02:26:35;27.30;;;19.27;;
11191;SDS011;5652;48.406;10.820;2022-12-11T02:29:10;27.50;;;19.42;;
11191;SDS011;5652;48.406;10.820;2022-12-11T02:31:39;28.75;;;20.38;;
11191;SDS011;5652;48.406;10.820;2022-12-11T02:34:07;28.17;;;20.77;;
11191;SDS011;5652;48.406;10.820;2022-12-11T02:36:36;28.85;;;20.33;;
11191;SDS011;5652;48.406;10.820;2022-12-11T02:39:05;26.83;;;19.17;;
11191;SDS011;5652;48.406;10.820;2022-12-11T02:41:33;27.83;;;20.52;;
11191;SDS011;5652;48.406;10.820;2022-12-11T02:44:00;26.33;;;19.73;;
11191;SDS011;5652;48.406;10.820;2022-12-11T02:46:29;26.73;;;19.63;;
11191;SDS011;5652;48.406;10.820;2022-12-11T02:48:57;26.77;;;19.88;;
11191;SDS011;5652;48.406;10.820;2022-12-11T02:51:25;25.42;;;19.25;;
11191;SDS011;5652;48.406;10.820;2022-12-11T02:53:55;26.33;;;19.70;;
11191;SDS011;5652;48.406;10.820;2022-12-11T02:56:26;25.00;;;19.13;;
11191;SDS011;5652;48.406;10.820;2022-12-11T02:58:56;26.90;;;19.50;;
11191;SDS011;5652;48.406;10.820;2022-12-11T03:01:25;27.75;;;19.83;;
11191;SDS011;5652;48.406;10.820;2022-12-11T03:03:53;28.42;;;20.05;;
11191;SDS011;5652;48.406;10.820;2022-12-11T03:06:22;28.35;;;20.67;;
11191;SDS011;5652;48.406;10.820;2022-12-11T03:08:50;27.88;;;19.65;;
11191;SDS011;5652;48.406;10.820;2022-12-11T03:11:17;27.52;;;19.33;;
11191;SDS011;5652;48.406;10.820;2022-12-11T03:13:44;28.33;;;19.88;;
11191;SDS011;5652;48.406;10.820;2022-12-11T03:16:13;29.33;;;20.48;;
11191;SDS011;5652;48.406;10.820;2022-12-11T03:18:44;28.63;;;20.60;;
11191;SDS011;5652;48.406;10.820;2022-12-11T03:21:18;26.17;;;19.52;;
11191;SDS011;5652;48.406;10.820;2022-12-11T03:23:49;29.90;;;21.23;;
11191;SDS011;5652;48.406;10.820;2022-12-11T03:26:18;29.43;;;20.57;;
11191;SDS011;5652;48.406;10.820;2022-12-11T03:28:47;29.17;;;21.02;;
11191;SDS011;5652;48.406;10.820;2022-12-11T03:31:17;29.40;;;20.90;;
11191;SDS011;5652;48.406;10.820;2022-12-11T03:33:47;28.27;;;20.25;;
11191;SDS011;5652;48.406;10.820;2022-12-11T03:36:16;28.10;;;20.33;;
11191;SDS011;5652;48.406;10.820;2022-12-11T03:38:47;27.63;;;20.13;;
11191;SDS011;5652;48.406;10.820;2022-12-11T03:41:17;27.80;;;20.10;;
11191;SDS011;5652;48.406;10.820;2022-12-11T03:43:45;29.17;;;20.75;;
11191;SDS011;5652;48.406;10.820;2022-12-11T03:49:18;26.92;;;19.05;;
11191;SDS011;5652;48.406;10.820;2022-12-11T03:51:47;25.95;;;18.17;;
11191;SDS011;5652;48.406;10.820;2022-12-11T03:54:17;23.98;;;18.20;;
11191;SDS011;5652;48.406;10.820;2022-12-11T03:56:45;23.60;;;18.10;;
11191;SDS011;5652;48.406;10.820;2022-12-11T03:59:12;25.17;;;18.10;;
11191;SDS011;5652;48.406;10.820;2022-12-11T04:01:39;26.02;;;18.90;;
11191;SDS011;5652;48.406;10.820;2022-12-11T04:04:07;24.70;;;18.05;;
11191;SDS011;5652;48.406;10.820;2022-12-11T04:06:34;23.60;;;18.10;;
11191;SDS011;5652;48.406;10.820;2022-12-11T04:09:02;23.88;;;17.83;;
11191;SDS011;5652;48.406;10.820;2022-12-11T04:11:30;23.80;;;17.42;;
11191;SDS011;5652;48.406;10.820;2022-12-11T04:14:01;23.67;;;17.50;;
11191;SDS011;5652;48.406;10.820;2022-12-11T04:16:46;24.00;;;17.98;;
11191;SDS011;5652;48.406;10.820;2022-12-11T04:19:13;22.27;;;16.70;;
11191;SDS011;5652;48.406;10.820;2022-12-11T04:21:58;24.58;;;18.73;;
11191;SDS011;5652;48.406;10.820;2022-12-11T04:24:39;24.57;;;18.47;;
11191;SDS011;5652;48.406;10.820;2022-12-11T04:27:08;25.75;;;18.95;;
11191;SDS011;5652;48.406;10.820;2022-12-11T04:29:35;25.98;;;18.92;;
11191;SDS011;5652;48.406;10.820;2022-12-11T04:32:02;25.33;;;19.13;;
11191;SDS011;5652;48.406;10.820;2022-12-11T04:34:29;26.23;;;18.75;;
11191;SDS011;5652;48.406;10.820;2022-12-11T04:36:56;23.65;;;18.35;;
11191;SDS011;5652;48.406;10.820;2022-12-11T04:39:23;25.20;;;19.25;;
11191;SDS011;5652;48.406;10.820;2022-12-11T04:41:50;24.83;;;18.52;;
11191;SDS011;5652;48.406;10.820;2022-12-11T04:44:19;26.20;;;18.70;;
11191;SDS011;5652;48.406;10.820;2022-12-11T04:46:46;24.10;;;18.05;;
11191;SDS011;5652;48.406;10.820;2022-12-11T04:49:13;23.67;;;17.57;;
11191;SDS011;5652;48.406;10.820;2022-12-11T04:51:40;23.77;;;17.80;;
11191;SDS011;5652;48.406;10.820;2022-12-11T04:54:08;25.02;;;18.40;;
11191;SDS011;5652;48.406;10.820;2022-12-11T04:56:35;25.97;;;19.33;;
11191;SDS011;5652;48.406;10.820;2022-12-11T04:59:02;23.02;;;18.15;;
11191;SDS011;5652;48.406;10.820;2022-12-11T05:01:30;24.02;;;18.35;;
11191;SDS011;5652;48.406;10.820;2022-12-11T05:03:58;24.75;;;18.20;;
11191;SDS011;5652;48.406;10.820;2022-12-11T05:06:25;24.27;;;18.13;;
11191;SDS011;5652;48.406;10.820;2022-12-11T05:08:52;24.20;;;18.25;;
11191;SDS011;5652;48.406;10.820;2022-12-11T05:11:19;25.58;;;19.00;;
11191;SDS011;5652;48.406;10.820;2022-12-11T05:13:46;24.00;;;18.07;;
11191;SDS011;5652;48.406;10.820;2022-12-11T05:16:15;26.20;;;18.70;;
11191;SDS011;5652;48.406;10.820;2022-12-11T05:18:43;22.95;;;17.80;;
11191;SDS011;5652;48.406;10.820;2022-12-11T05:21:12;22.90;;;17.70;;
11191;SDS011;5652;48.406;10.820;2022-12-11T05:23:39;22.63;;;17.08;;
11191;SDS011;5652;48.406;10.820;2022-12-11T05:26:07;24.48;;;17.70;;
11191;SDS011;5652;48.406;10.820;2022-12-11T05:28:35;23.45;;;17.63;;
11191;SDS011;5652;48.406;10.820;2022-12-11T05:31:04;23.98;;;17.63;;
11191;SDS011;5652;48.406;10.820;2022-12-11T05:33:31;23.52;;;17.63;;
11191;SDS011;5652;48.406;10.820;2022-12-11T05:36:00;25.38;;;18.08;;
11191;SDS011;5652;48.406;10.820;2022-12-11T05:38:27;24.17;;;18.27;;
11191;SDS011;5652;48.406;10.820;2022-12-11T05:40:54;24.58;;;19.02;;
11191;SDS011;5652;48.406;10.820;2022-12-11T05:43:23;24.47;;;18.57;;
11191;SDS011;5652;48.406;10.820;2022-12-11T05:45:51;23.60;;;18.33;;
11191;SDS011;5652;48.406;10.820;2022-12-11T05:48:18;25.13;;;18.08;;
11191;SDS011;5652;48.406;10.820;2022-12-11T05:50:54;24.35;;;18.17;;
11191;SDS011;5652;48.406;10.820;2022-12-11T05:53:23;23.60;;;17.70;;
11191;SDS011;5652;48.406;10.820;2022-12-11T05:55:50;23.52;;;18.02;;
11191;SDS011;5652;48.406;10.820;2022-12-11T05:58:17;22.95;;;17.70;;
11191;SDS011;5652;48.406;10.820;2022-12-11T06:00:45;23.02;;;17.65;;
11191;SDS011;5652;48.406;10.820;2022-12-11T06:03:12;23.52;;;17.58;;
11191;SDS011;5652;48.406;10.820;2022-12-11T06:05:40;23.33;;;17.88;;
11191;SDS011;5652;48.406;10.820;2022-12-11T06:08:07;25.65;;;18.75;;
11191;SDS011;5652;48.406;10.820;2022-12-11T06:10:35;26.23;;;19.13;;
11191;SDS011;5652;48.406;10.820;2022-12-11T06:13:02;27.02;;;20.23;;
11191;SDS011;5652;48.406;10.820;2022-12-11T06:15:31;26.80;;;19.30;;
11191;SDS011;5652;48.406;10.820;2022-12-11T06:17:58;25.50;;;19.42;;
11191;SDS011;5652;48.406;10.820;2022-12-11T06:20:25;27.17;;;19.80;;
11191;SDS011;5652;48.406;10.820;2022-12-11T06:22:52;27.42;;;19.98;;
11191;SDS011;5652;48.406;10.820;2022-12-11T06:25:19;27.33;;;20.25;;
11191;SDS011;5652;48.406;10.820;2022-12-11T06:27:48;28.52;;;20.33;;
11191;SDS011;5652;48.406;10.820;2022-12-11T06:30:16;29.95;;;21.42;;
11191;SDS011;5652;48.406;10.820;2022-12-11T06:32:43;28.90;;;21.58;;
11191;SDS011;5652;48.406;10.820;2022-12-11T06:35:10;28.10;;;20.90;;
11191;SDS011;5652;48.406;10.820;2022-12-11T06:37:38;28.50;;;20.80;;
11191;SDS011;5652;48.406;10.820;2022-12-11T06:40:06;30.48;;;21.45;;
11191;SDS011;5652;48.406;10.820;2022-12-11T06:42:34;31.88;;;22.23;;
11191;SDS011;5652;48.406;10.820;2022-12-11T06:45:03;32.33;;;22.05;;
11191;SDS011;5652;48.406;10.820;2022-12-11T06:47:30;32.92;;;23.60;;
11191;SDS011;5652;48.406;10.820;2022-12-11T06:49:58;32.50;;;22.50;;
11191;SDS011;5652;48.406;10.820;2022-12-11T06:52:25;31.65;;;22.48;;
11191;SDS011;5652;48.406;10.820;2022-12-11T06:54:52;32.95;;;23.05;;
11191;SDS011;5652;48.406;10.820;2022-12-11T06:57:20;35.43;;;23.83;;
11191;SDS011;5652;48.406;10.820;2022-12-11T06:59:47;34.00;;;22.90;;
11191;SDS011;5652;48.406;10.820;2022-12-11T07:02:16;32.28;;;23.10;;
11191;SDS011;5652;48.406;10.820;2022-12-11T07:04:44;31.88;;;22.55;;
11191;SDS011;5652;48.406;10.820;2022-12-11T07:07:11;35.42;;;24.05;;
11191;SDS011;5652;48.406;10.820;2022-12-11T07:09:39;34.13;;;23.50;;
11191;SDS011;5652;48.406;10.820;2022-12-11T07:12:06;34.45;;;23.52;;
11191;SDS011;5652;48.406;10.820;2022-12-11T07:14:34;35.80;;;24.07;;
11191;SDS011;5652;48.406;10.820;2022-12-11T07:17:01;32.77;;;23.53;;
11191;SDS011;5652;48.406;10.820;2022-12-11T07:19:30;33.47;;;22.90;;
11191;SDS011;5652;48.406;10.820;2022-12-11T07:21:57;33.72;;;23.15;;
11191;SDS011;5652;48.406;10.820;2022-12-11T07:24:24;34.00;;;23.50;;
11191;SDS011;5652;48.406;10.820;2022-12-11T07:26:51;31.75;;;22.35;;
11191;SDS011;5652;48.406;10.820;2022-12-11T07:29:18;29.40;;;21.25;;
11191;SDS011;5652;48.406;10.820;2022-12-11T07:31:45;29.08;;;21.88;;
11191;SDS011;5652;48.406;10.820;2022-12-11T07:34:13;28.65;;;21.23;;
11191;SDS011;5652;48.406;10.820;2022-12-11T07:36:41;30.40;;;22.23;;
11191;SDS011;5652;48.406;10.820;2022-12-11T07:39:09;29.42;;;21.42;;
11191;SDS011;5652;48.406;10.820;2022-12-11T07:41:37;28.92;;;21.02;;
11191;SDS011;5652;48.406;10.820;2022-12-11T07:44:04;28.15;;;21.23;;
11191;SDS011;5652;48.406;10.820;2022-12-11T07:46:31;30.45;;;21.58;;
11191;SDS011;5652;48.406;10.820;2022-12-11T07:48:59;30.60;;;21.92;;
11191;SDS011;5652;48.406;10.820;2022-12-11T07:51:27;26.13;;;20.33;;
11191;SDS011;5652;48.406;10.820;2022-12-11T07:53:57;24.23;;;18.58;;
11191;SDS011;5652;48.406;10.820;2022-12-11T07:56:25;23.40;;;18.02;;
11191;SDS011;5652;48.406;10.820;2022-12-11T07:58:52;23.25;;;18.05;;
11191;SDS011;5652;48.406;10.820;2022-12-11T08:01:20;22.58;;;17.52;;
11191;SDS011;5652;48.406;10.820;2022-12-11T08:03:48;20.90;;;16.83;;
11191;SDS011;5652;48.406;10.820;2022-12-11T08:06:16;18.63;;;15.35;;
11191;SDS011;5652;48.406;10.820;2022-12-11T08:08:43;17.48;;;14.52;;
11191;SDS011;5652;48.406;10.820;2022-12-11T08:11:12;18.23;;;14.50;;
11191;SDS011;5652;48.406;10.820;2022-12-11T08:13:39;17.50;;;14.38;;
11191;SDS011;5652;48.406;10.820;2022-12-11T08:16:08;17.00;;;13.87;;
11191;SDS011;5652;48.406;10.820;2022-12-11T08:18:35;16.77;;;13.75;;
11191;SDS011;5652;48.406;10.820;2022-12-11T08:21:03;17.50;;;14.02;;
11191;SDS011;5652;48.406;10.820;2022-12-11T08:23:31;17.58;;;14.00;;
11191;SDS011;5652;48.406;10.820;2022-12-11T08:25:58;16.45;;;13.57;;
11191;SDS011;5652;48.406;10.820;2022-12-11T08:28:29;16.08;;;13.73;;
11191;SDS011;5652;48.406;10.820;2022-12-11T08:30:56;16.88;;;13.93;;
11191;SDS011;5652;48.406;10.820;2022-12-11T08:33:23;15.88;;;13.32;;
11191;SDS011;5652;48.406;10.820;2022-12-11T08:35:50;16.00;;;13.88;;
11191;SDS011;5652;48.406;10.820;2022-12-11T08:38:17;15.85;;;13.35;;
11191;SDS011;5652;48.406;10.820;2022-12-11T08:40:45;15.18;;;12.95;;
11191;SDS011;5652;48.406;10.820;2022-12-11T08:43:12;15.07;;;13.10;;
11191;SDS011;5652;48.406;10.820;2022-12-11T08:45:40;15.55;;;12.90;;
11191;SDS011;5652;48.406;10.820;2022-12-11T08:48:07;15.85;;;12.95;;
11191;SDS011;5652;48.406;10.820;2022-12-11T08:50:35;15.27;;;12.38;;
11191;SDS011;5652;48.406;10.820;2022-12-11T08:53:02;15.48;;;12.90;;
11191;SDS011;5652;48.406;10.820;2022-12-11T08:55:30;14.10;;;11.55;;
11191;SDS011;5652;48.406;10.820;2022-12-11T08:57:57;14.37;;;11.80;;
11191;SDS011;5652;48.406;10.820;2022-12-11T09:00:24;13.63;;;11.63;;
11191;SDS011;5652;48.406;10.820;2022-12-11T09:02:53;14.13;;;11.93;;
11191;SDS011;5652;48.406;10.820;2022-12-11T09:05:20;13.73;;;11.05;;
11191;SDS011;5652;48.406;10.820;2022-12-11T09:07:47;13.70;;;10.50;;
11191;SDS011;5652;48.406;10.820;2022-12-11T09:10:14;12.25;;;10.05;;
11191;SDS011;5652;48.406;10.820;2022-12-11T09:12:41;14.23;;;10.60;;
11191;SDS011;5652;48.406;10.820;2022-12-11T09:15:09;13.02;;;10.65;;
11191;SDS011;5652;48.406;10.820;2022-12-11T09:17:36;12.68;;;9.75;;
11191;SDS011;5652;48.406;10.820;2022-12-11T09:20:05;12.55;;;10.10;;
11191;SDS011;5652;48.406;10.820;2022-12-11T09:22:33;11.35;;;8.73;;
11191;SDS011;5652;48.406;10.820;2022-12-11T09:25:01;11.40;;;8.63;;
11191;SDS011;5652;48.406;10.820;2022-12-11T09:27:28;11.23;;;8.70;;
11191;SDS011;5652;48.406;10.820;2022-12-11T09:29:55;11.52;;;8.50;;
11191;SDS011;5652;48.406;10.820;2022-12-11T09:32:22;11.48;;;8.63;;
11191;SDS011;5652;48.406;10.820;2022-12-11T09:34:49;10.90;;;8.35;;
11191;SDS011;5652;48.406;10.820;2022-12-11T09:37:19;12.23;;;8.80;;
11191;SDS011;5652;48.406;10.820;2022-12-11T09:39:46;11.80;;;8.55;;
11191;SDS011;5652;48.406;10.820;2022-12-11T09:42:14;13.10;;;9.85;;
11191;SDS011;5652;48.406;10.820;2022-12-11T09:44:45;11.82;;;8.38;;
11191;SDS011;5652;48.406;10.820;2022-12-11T09:47:20;11.35;;;8.50;;
11191;SDS011;5652;48.406;10.820;2022-12-11T09:49:49;12.13;;;8.90;;
11191;SDS011;5652;48.406;10.820;2022-12-11T09:52:19;12.13;;;8.32;;
11191;SDS011;5652;48.406;10.820;2022-12-11T09:54:48;11.63;;;8.00;;
11191;SDS011;5652;48.406;10.820;2022-12-11T10:00:06;11.40;;;7.97;;
11191;SDS011;5652;48.406;10.820;2022-12-11T10:02:39;11.02;;;8.20;;
11191;SDS011;5652;48.406;10.820;2022-12-11T10:05:11;11.75;;;8.73;;
11191;SDS011;5652;48.406;10.820;2022-12-11T10:07:43;12.15;;;9.75;;
11191;SDS011;5652;48.406;10.820;2022-12-11T10:10:13;12.20;;;10.00;;
11191;SDS011;5652;48.406;10.820;2022-12-11T10:12:43;10.18;;;8.60;;
11191;SDS011;5652;48.406;10.820;2022-12-11T10:15:33;10.80;;;8.45;;
11191;SDS011;5652;48.406;10.820;2022-12-11T10:18:02;10.10;;;8.57;;
11191;SDS011;5652;48.406;10.820;2022-12-11T10:20:31;10.25;;;8.38;;
11191;SDS011;5652;48.406;10.820;2022-12-11T10:23:04;8.68;;;6.97;;
11191;SDS011;5652;48.406;10.820;2022-12-11T10:25:33;9.48;;;7.20;;
11191;SDS011;5652;48.406;10.820;2022-12-11T10:28:07;11.40;;;7.60;;
11191;SDS011;5652;48.406;10.820;2022-12-11T10:30:36;11.20;;;7.75;;
11191;SDS011;5652;48.406;10.820;2022-12-11T10:33:05;10.40;;;7.25;;
11191;SDS011;5652;48.406;10.820;2022-12-11T10:35:38;8.60;;;6.22;;
11191;SDS011;5652;48.406;10.820;2022-12-11T10:38:12;9.50;;;7.18;;
11191;SDS011;5652;48.406;10.820;2022-12-11T10:40:42;9.45;;;7.28;;
11191;SDS011;5652;48.406;10.820;2022-12-11T10:43:09;9.93;;;7.28;;
11191;SDS011;5652;48.406;10.820;2022-12-11T10:45:37;9.27;;;6.80;;
11191;SDS011;5652;48.406;10.820;2022-12-11T10:48:04;9.73;;;6.97;;
11191;SDS011;5652;48.406;10.820;2022-12-11T10:50:32;9.65;;;7.40;;
11191;SDS011;5652;48.406;10.820;2022-12-11T10:53:00;10.25;;;7.50;;
11191;SDS011;5652;48.406;10.820;2022-12-11T10:55:29;9.63;;;7.32;;
11191;SDS011;5652;48.406;10.820;2022-12-11T10:58:00;10.52;;;7.60;;
11191;SDS011;5652;48.406;10.820;2022-12-11T11:00:29;9.25;;;6.15;;
11191;SDS011;5652;48.406;10.820;2022-12-11T11:02:57;9.15;;;7.07;;
11191;SDS011;5652;48.406;10.820;2022-12-11T11:05:27;9.52;;;7.15;;
11191;SDS011;5652;48.406;10.820;2022-12-11T11:08:01;9.65;;;7.55;;
11191;SDS011;5652;48.406;10.820;2022-12-11T11:10:30;10.05;;;8.18;;
11191;SDS011;5652;48.406;10.820;2022-12-11T11:12:59;11.50;;;8.75;;
11191;SDS011;5652;48.406;10.820;2022-12-11T11:15:27;10.93;;;8.45;;
11191;SDS011;5652;48.406;10.820;2022-12-11T11:17:55;10.38;;;8.32;;
11191;SDS011;5652;48.406;10.820;2022-12-11T11:20:23;10.93;;;8.80;;
11191;SDS011;5652;48.406;10.820;2022-12-11T11:22:52;11.02;;;8.90;;
11191;SDS011;5652;48.406;10.820;2022-12-11T11:25:20;11.48;;;9.52;;
11191;SDS011;5652;48.406;10.820;2022-12-11T11:27:50;11.10;;;9.10;;
11191;SDS011;5652;48.406;10.820;2022-12-11T11:30:20;11.05;;;9.23;;
11191;SDS011;5652;48.406;10.820;2022-12-11T11:32:48;11.68;;;9.43;;
11191;SDS011;5652;48.406;10.820;2022-12-11T11:35:17;11.50;;;9.38;;
11191;SDS011;5652;48.406;10.820;2022-12-11T11:37:45;11.17;;;9.43;;
11191;SDS011;5652;48.406;10.820;2022-12-11T11:40:14;10.75;;;8.88;;
11191;SDS011;5652;48.406;10.820;2022-12-11T11:42:43;9.82;;;8.20;;
11191;SDS011;5652;48.406;10.820;2022-12-11T11:45:13;10.63;;;7.72;;
11191;SDS011;5652;48.406;10.820;2022-12-11T11:47:43;9.98;;;7.75;;
11191;SDS011;5652;48.406;10.820;2022-12-11T11:50:15;8.63;;;5.78;;
11191;SDS011;5652;48.406;10.820;2022-12-11T11:52:45;8.52;;;6.43;;
11191;SDS011;5652;48.406;10.820;2022-12-11T11:55:14;8.95;;;6.70;;
11191;SDS011;5652;48.406;10.820;2022-12-11T11:57:44;8.93;;;7.43;;
11191;SDS011;5652;48.406;10.820;2022-12-11T12:00:18;9.43;;;7.43;;
11191;SDS011;5652;48.406;10.820;2022-12-11T12:02:46;9.32;;;7.13;;
11191;SDS011;5652;48.406;10.820;2022-12-11T12:05:14;10.25;;;7.90;;
11191;SDS011;5652;48.406;10.820;2022-12-11T12:07:44;8.90;;;7.50;;
11191;SDS011;5652;48.406;10.820;2022-12-11T12:10:15;10.77;;;8.45;;
11191;SDS011;5652;48.406;10.820;2022-12-11T12:12:46;11.63;;;9.40;;
11191;SDS011;5652;48.406;10.820;2022-12-11T12:15:27;9.65;;;7.85;;
11191;SDS011;5652;48.406;10.820;2022-12-11T12:17:57;9.38;;;8.02;;
11191;SDS011;5652;48.406;10.820;2022-12-11T12:20:27;9.07;;;6.93;;
11191;SDS011;5652;48.406;10.820;2022-12-11T12:22:59;9.07;;;7.55;;
11191;SDS011;5652;48.406;10.820;2022-12-11T12:25:29;9.52;;;7.68;;
11191;SDS011;5652;48.406;10.820;2022-12-11T12:27:59;9.85;;;8.10;;
11191;SDS011;5652;48.406;10.820;2022-12-11T12:30:35;10.73;;;7.78;;
11191;SDS011;5652;48.406;10.820;2022-12-11T12:33:14;10.17;;;8.30;;
11191;SDS011;5652;48.406;10.820;2022-12-11T12:35:48;9.95;;;8.02;;
11191;SDS011;5652;48.406;10.820;2022-12-11T12:38:17;9.85;;;7.93;;
11191;SDS011;5652;48.406;10.820;2022-12-11T12:40:50;10.23;;;8.20;;
11191;SDS011;5652;48.406;10.820;2022-12-11T12:43:28;9.93;;;7.82;;
11191;SDS011;5652;48.406;10.820;2022-12-11T12:45:59;10.13;;;8.30;;
11191;SDS011;5652;48.406;10.820;2022-12-11T12:48:30;11.13;;;8.55;;
11191;SDS011;5652;48.406;10.820;2022-12-11T12:50:58;10.55;;;8.10;;
11191;SDS011;5652;48.406;10.820;2022-12-11T12:53:26;11.00;;;8.57;;
11191;SDS011;5652;48.406;10.820;2022-12-11T12:55:54;10.70;;;8.63;;
11191;SDS011;5652;48.406;10.820;2022-12-11T12:58:23;10.27;;;8.43;;
11191;SDS011;5652;48.406;10.820;2022-12-11T13:00:50;10.57;;;8.87;;
11191;SDS011;5652;48.406;10.820;2022-12-11T13:03:20;11.43;;;9.00;;
11191;SDS011;5652;48.406;10.820;2022-12-11T13:05:54;11.73;;;8.67;;
11191;SDS011;5652;48.406;10.820;2022-12-11T13:08:22;12.10;;;9.13;;
11191;SDS011;5652;48.406;10.820;2022-12-11T13:10:55;10.70;;;8.88;;
11191;SDS011;5652;48.406;10.820;2022-12-11T13:13:30;10.93;;;9.10;;
11191;SDS011;5652;48.406;10.820;2022-12-11T13:16:04;11.17;;;9.00;;
11191;SDS011;5652;48.406;10.820;2022-12-11T13:18:34;11.60;;;9.68;;
11191;SDS011;5652;48.406;10.820;2022-12-11T13:21:02;10.48;;;9.00;;
11191;SDS011;5652;48.406;10.820;2022-12-11T13:23:49;11.48;;;9.20;;
11191;SDS011;5652;48.406;10.820;2022-12-11T13:26:26;11.45;;;9.75;;
11191;SDS011;5652;48.406;10.820;2022-12-11T13:28:53;10.87;;;9.10;;
11191;SDS011;5652;48.406;10.820;2022-12-11T13:31:24;11.68;;;9.10;;
11191;SDS011;5652;48.406;10.820;2022-12-11T13:33:55;9.88;;;8.40;;
11191;SDS011;5652;48.406;10.820;2022-12-11T13:36:24;13.15;;;10.02;;
11191;SDS011;5652;48.406;10.820;2022-12-11T13:38:53;11.88;;;9.70;;
11191;SDS011;5652;48.406;10.820;2022-12-11T13:41:21;12.45;;;9.60;;
11191;SDS011;5652;48.406;10.820;2022-12-11T13:43:48;11.40;;;9.40;;
11191;SDS011;5652;48.406;10.820;2022-12-11T13:46:18;10.77;;;8.55;;
11191;SDS011;5652;48.406;10.820;2022-12-11T13:48:47;11.30;;;8.77;;
11191;SDS011;5652;48.406;10.820;2022-12-11T13:51:20;10.80;;;8.82;;
11191;SDS011;5652;48.406;10.820;2022-12-11T13:53:48;12.02;;;9.27;;
11191;SDS011;5652;48.406;10.820;2022-12-11T13:56:15;10.73;;;8.63;;
11191;SDS011;5652;48.406;10.820;2022-12-11T13:58:43;10.05;;;8.55;;
11191;SDS011;5652;48.406;10.820;2022-12-11T14:01:11;11.65;;;9.15;;
11191;SDS011;5652;48.406;10.820;2022-12-11T14:03:42;11.68;;;9.60;;
11191;SDS011;5652;48.406;10.820;2022-12-11T14:06:12;11.27;;;9.23;;
11191;SDS011;5652;48.406;10.820;2022-12-11T14:08:42;11.00;;;8.55;;
11191;SDS011;5652;48.406;10.820;2022-12-11T14:11:11;11.38;;;9.05;;
11191;SDS011;5652;48.406;10.820;2022-12-11T14:13:41;11.48;;;8.88;;
11191;SDS011;5652;48.406;10.820;2022-12-11T14:16:13;11.77;;;8.82;;
11191;SDS011;5652;48.406;10.820;2022-12-11T14:18:46;11.82;;;9.50;;
11191;SDS011;5652;48.406;10.820;2022-12-11T14:21:16;12.68;;;9.75;;
11191;SDS011;5652;48.406;10.820;2022-12-11T14:23:51;11.60;;;9.93;;
11191;SDS011;5652;48.406;10.820;2022-12-11T14:26:18;12.93;;;10.10;;
11191;SDS011;5652;48.406;10.820;2022-12-11T14:28:46;11.93;;;9.93;;
11191;SDS011;5652;48.406;10.820;2022-12-11T14:31:14;12.37;;;10.03;;
11191;SDS011;5652;48.406;10.820;2022-12-11T14:33:43;12.82;;;10.48;;
11191;SDS011;5652;48.406;10.820;2022-12-11T14:36:11;13.02;;;10.25;;
11191;SDS011;5652;48.406;10.820;2022-12-11T14:38:41;14.43;;;11.10;;
11191;SDS011;5652;48.406;10.820;2022-12-11T14:41:12;13.20;;;10.95;;
11191;SDS011;5652;48.406;10.820;2022-12-11T14:43:41;14.57;;;11.48;;
11191;SDS011;5652;48.406;10.820;2022-12-11T14:46:09;13.23;;;10.63;;